createdAt,value
2019-02-22T00:01:40.078Z,10.60
2019-02-22T00:04:13.431Z,12.20
2019-02-22T00:06:46.029Z,10.33
2019-02-22T00:09:16.826Z,9.70
2019-02-22T00:11:47.818Z,11.97
2019-02-22T00:14:19.645Z,12.30
2019-02-22T00:16:50.552Z,11.37
2019-02-22T00:19:22.253Z,12.20
2019-02-22T00:21:53.470Z,10.80
2019-02-22T00:24:24.594Z,13.27
2019-02-22T00:26:55.886Z,9.63
2019-02-22T00:29:27.159Z,13.73
2019-02-22T00:31:58.509Z,11.63
2019-02-22T00:34:29.367Z,10.40
2019-02-22T00:37:00.536Z,10.08
2019-02-22T00:39:31.301Z,12.07
2019-02-22T00:42:02.245Z,7.30
2019-02-22T00:44:33.152Z,6.73
2019-02-22T00:47:04.374Z,5.67
2019-02-22T00:49:35.743Z,4.13
2019-02-22T00:52:07.083Z,4.30
2019-02-22T00:54:38.900Z,3.23
2019-02-22T00:57:09.448Z,3.97
2019-02-22T00:59:40.260Z,3.43
2019-02-22T01:02:11.682Z,3.40
2019-02-22T01:04:42.193Z,5.37
2019-02-22T01:07:13.902Z,5.00
2019-02-22T01:09:45.782Z,4.97
2019-02-22T01:12:17.055Z,3.50
2019-02-22T01:14:48.396Z,2.80
2019-02-22T01:17:19.443Z,3.10
2019-02-22T01:19:50.436Z,3.53
2019-02-22T01:22:21.835Z,3.40
2019-02-22T01:24:53.118Z,4.37
2019-02-22T01:27:24.135Z,3.37
2019-02-22T01:29:55.342Z,2.97
2019-02-22T01:32:26.874Z,3.40
2019-02-22T01:35:01.113Z,3.03
2019-02-22T01:37:33.432Z,3.23
2019-02-22T01:40:05.766Z,3.47
2019-02-22T01:42:36.841Z,4.43
2019-02-22T01:45:08.310Z,5.63
2019-02-22T01:47:39.559Z,5.77
2019-02-22T01:50:13.336Z,4.40
2019-02-22T01:52:44.309Z,5.50
2019-02-22T01:55:15.220Z,4.27
2019-02-22T01:57:46.186Z,4.77
2019-02-22T02:00:17.294Z,4.30
2019-02-22T02:02:48.363Z,4.47
2019-02-22T02:05:19.859Z,5.40
2019-02-22T02:07:50.885Z,6.53
2019-02-22T02:10:22.093Z,4.07
2019-02-22T02:12:53.137Z,4.90
2019-02-22T02:15:24.821Z,3.97
2019-02-22T02:17:55.831Z,5.33
2019-02-22T02:20:27.020Z,5.80
2019-02-22T02:22:58.454Z,3.73
2019-02-22T02:25:29.663Z,4.23
2019-02-22T02:28:00.582Z,4.37
2019-02-22T02:30:32.889Z,4.80
2019-02-22T02:33:04.493Z,4.97
2019-02-22T02:35:36.009Z,4.53
2019-02-22T02:38:06.989Z,6.30
2019-02-22T02:40:38.205Z,5.70
2019-02-22T02:43:09.638Z,5.13
2019-02-22T02:45:40.883Z,5.70
2019-02-22T02:48:12.030Z,6.43
2019-02-22T02:50:43.057Z,6.07
2019-02-22T02:53:14.189Z,6.43
2019-02-22T02:55:45.236Z,5.60
2019-02-22T02:58:15.837Z,9.73
2019-02-22T03:00:46.863Z,5.00
2019-02-22T03:03:18.705Z,5.53
2019-02-22T03:05:51.651Z,9.10
2019-02-22T03:08:24.014Z,5.00
2019-02-22T03:10:54.923Z,5.97
2019-02-22T03:13:26.557Z,6.97
2019-02-22T03:15:57.430Z,6.27
2019-02-22T03:18:27.885Z,5.80
2019-02-22T03:20:59.762Z,6.90
2019-02-22T03:23:30.643Z,7.57
2019-02-22T03:26:01.631Z,6.60
2019-02-22T03:28:33.110Z,6.50
2019-02-22T03:31:04.826Z,9.17
2019-02-22T03:33:35.834Z,6.60
2019-02-22T03:36:06.905Z,5.43
2019-02-22T03:38:38.120Z,5.67
2019-02-22T03:41:09.369Z,10.20
2019-02-22T03:43:41.292Z,7.67
2019-02-22T03:46:12.202Z,5.27
2019-02-22T03:48:43.425Z,6.83
2019-02-22T03:51:14.884Z,6.67
2019-02-22T03:53:47.314Z,6.53
2019-02-22T03:56:18.874Z,7.33
2019-02-22T03:58:50.017Z,7.63
2019-02-22T04:01:21.070Z,6.47
2019-02-22T04:03:51.906Z,6.37
2019-02-22T04:06:22.463Z,8.77
2019-02-22T04:08:54.628Z,7.90
2019-02-22T04:11:25.821Z,7.87
2019-02-22T04:13:56.668Z,7.40
2019-02-22T04:16:27.979Z,8.10
2019-02-22T04:18:59.751Z,7.40
2019-02-22T04:21:30.279Z,10.27
2019-02-22T04:24:01.356Z,6.53
2019-02-22T04:26:32.143Z,6.67
2019-02-22T04:29:03.179Z,7.50
2019-02-22T04:31:33.864Z,6.30
2019-02-22T04:34:05.383Z,5.27
2019-02-22T04:36:36.082Z,4.53
2019-02-22T04:39:08.239Z,5.00
2019-02-22T04:41:39.019Z,5.83
2019-02-22T04:44:10.081Z,4.43
2019-02-22T04:46:40.983Z,4.57
2019-02-22T04:49:12.613Z,6.27
2019-02-22T04:51:43.730Z,5.67
2019-02-22T04:54:14.912Z,4.73
2019-02-22T04:56:46.464Z,6.70
2019-02-22T04:59:17.749Z,5.93
2019-02-22T05:01:48.573Z,6.90
2019-02-22T05:04:19.754Z,7.47
2019-02-22T05:06:50.768Z,6.73
2019-02-22T05:09:22.070Z,7.60
2019-02-22T05:11:53.144Z,6.07
2019-02-22T05:14:24.426Z,5.23
2019-02-22T05:16:55.509Z,6.87
2019-02-22T05:19:26.337Z,7.13
2019-02-22T05:21:57.261Z,6.90
2019-02-22T05:24:28.612Z,6.30
2019-02-22T05:26:59.683Z,5.10
2019-02-22T05:29:30.623Z,7.33
2019-02-22T05:32:01.502Z,7.70
2019-02-22T05:34:32.452Z,7.80
2019-02-22T05:37:03.442Z,9.30
2019-02-22T05:39:34.665Z,8.83
2019-02-22T05:42:06.096Z,9.13
2019-02-22T05:44:37.417Z,7.30
2019-02-22T05:47:08.573Z,11.13
2019-02-22T05:49:39.303Z,11.93
2019-02-22T05:52:10.659Z,10.10
2019-02-22T05:54:42.053Z,9.30
2019-02-22T05:57:14.284Z,9.60
2019-02-22T05:59:46.185Z,8.20
2019-02-22T06:02:17.081Z,6.80
2019-02-22T06:04:48.459Z,5.43
2019-02-22T06:07:19.648Z,5.90
2019-02-22T06:09:52.190Z,4.87
2019-02-22T06:12:33.910Z,5.20
2019-02-22T06:14:56.042Z,10.20
2019-02-22T06:17:27.345Z,8.83
2019-02-22T06:19:58.954Z,17.53
2019-02-22T06:22:30.276Z,19.63
2019-02-22T06:25:01.838Z,17.23
2019-02-22T06:27:32.633Z,10.40
2019-02-22T06:30:04.280Z,8.73
2019-02-22T06:32:35.544Z,10.97
2019-02-22T06:35:08.947Z,11.03
2019-02-22T06:37:40.413Z,9.03
2019-02-22T06:40:11.379Z,15.37
2019-02-22T06:42:46.012Z,8.27
2019-02-22T06:45:16.976Z,7.17
2019-02-22T06:47:48.121Z,7.60
2019-02-22T06:50:19.206Z,10.10
2019-02-22T06:52:49.862Z,9.43
2019-02-22T06:55:21.013Z,7.03
2019-02-22T06:57:52.309Z,10.00
2019-02-22T07:00:23.993Z,10.57
2019-02-22T07:02:55.544Z,12.33
2019-02-22T07:05:26.664Z,10.87
2019-02-22T07:07:57.799Z,13.07
2019-02-22T07:10:30.788Z,13.50
2019-02-22T07:13:03.677Z,8.37
2019-02-22T07:15:35.264Z,8.90
2019-02-22T07:18:06.295Z,13.77
2019-02-22T07:20:37.482Z,9.87
2019-02-22T07:23:08.263Z,9.40
2019-02-22T07:25:39.621Z,8.93
2019-02-22T07:28:11.142Z,7.57
2019-02-22T07:30:42.282Z,11.60
2019-02-22T07:33:13.570Z,10.73
2019-02-22T07:35:45.261Z,7.93
2019-02-22T07:38:16.724Z,7.33
2019-02-22T07:40:48.407Z,11.43
2019-02-22T07:43:19.902Z,10.60
2019-02-22T07:45:51.068Z,8.43
2019-02-22T07:48:22.221Z,10.00
2019-02-22T07:50:57.631Z,8.60
2019-02-22T07:53:26.709Z,8.03
2019-02-22T07:55:57.712Z,8.97
2019-02-22T07:58:29.104Z,4.53
2019-02-22T08:01:00.831Z,4.10
2019-02-22T08:03:32.167Z,7.20
2019-02-22T08:06:03.360Z,9.83
2019-02-22T08:08:34.405Z,13.60
2019-02-22T08:11:05.683Z,8.13
2019-02-22T08:13:37.106Z,10.50
2019-02-22T08:16:08.018Z,11.43
2019-02-22T08:18:40.015Z,9.47
2019-02-22T08:21:11.605Z,8.50
2019-02-22T08:23:42.857Z,10.10
2019-02-22T08:26:14.450Z,6.07
2019-02-22T08:28:45.920Z,6.67
2019-02-22T08:31:17.243Z,7.07
2019-02-22T08:33:49.395Z,7.03
2019-02-22T08:36:20.806Z,13.33
2019-02-22T08:38:51.870Z,8.03
2019-02-22T08:41:23.184Z,6.93
2019-02-22T08:43:54.726Z,6.03
2019-02-22T08:46:26.410Z,7.70
2019-02-22T08:48:58.759Z,6.60
2019-02-22T08:51:29.950Z,7.07
2019-02-22T08:54:01.784Z,6.27
2019-02-22T08:56:33.287Z,6.10
2019-02-22T08:59:05.804Z,10.00
2019-02-22T09:01:36.777Z,14.53
2019-02-22T09:04:09.620Z,5.93
2019-02-22T09:06:40.890Z,6.57
2019-02-22T09:09:12.102Z,8.17
2019-02-22T09:11:44.520Z,8.77
2019-02-22T09:14:16.105Z,5.07
2019-02-22T09:16:47.372Z,5.37
2019-02-22T09:19:18.510Z,3.40
2019-02-22T09:21:49.431Z,4.83
2019-02-22T09:24:20.614Z,5.23
2019-02-22T09:26:51.288Z,5.60
2019-02-22T09:29:22.593Z,4.90
2019-02-22T09:31:54.013Z,7.97
2019-02-22T09:34:25.840Z,5.07
2019-02-22T09:36:57.818Z,9.07
2019-02-22T09:39:29.400Z,8.37
2019-02-22T09:42:01.052Z,6.40
2019-02-22T09:44:33.121Z,13.37
2019-02-22T09:47:04.974Z,9.77
2019-02-22T09:49:36.262Z,5.93
2019-02-22T09:52:07.239Z,5.50
2019-02-22T09:54:38.509Z,10.20
2019-02-22T09:57:10.206Z,7.33
2019-02-22T09:59:41.195Z,5.40
2019-02-22T10:02:12.715Z,9.60
2019-02-22T10:04:54.634Z,20.77
2019-02-22T10:07:17.361Z,17.73
2019-02-22T10:09:48.680Z,10.67
2019-02-22T10:12:20.458Z,7.30
2019-02-22T10:14:52.408Z,9.73
2019-02-22T10:17:24.223Z,4.50
2019-02-22T10:19:55.426Z,5.53
2019-02-22T10:22:27.038Z,4.57
2019-02-22T10:24:58.620Z,8.90
2019-02-22T10:27:30.349Z,11.53
2019-02-22T10:30:01.414Z,7.20
2019-02-22T10:32:32.960Z,9.60
2019-02-22T10:35:04.666Z,11.57
2019-02-22T10:37:35.589Z,4.97
2019-02-22T10:40:08.781Z,12.53
2019-02-22T10:42:39.979Z,5.23
2019-02-22T10:45:12.113Z,4.33
2019-02-22T10:47:43.544Z,3.80
2019-02-22T10:50:15.900Z,10.40
2019-02-22T10:52:46.654Z,7.33
2019-02-22T10:55:18.025Z,22.03
2019-02-22T10:57:49.750Z,8.30
2019-02-22T11:00:21.385Z,9.07
2019-02-22T11:02:52.678Z,4.13
2019-02-22T11:05:24.438Z,9.07
2019-02-22T11:07:55.517Z,10.40
2019-02-22T11:10:27.095Z,6.10
2019-02-22T11:12:58.363Z,20.10
2019-02-22T11:15:30.114Z,7.37
2019-02-22T11:18:01.093Z,5.67
2019-02-22T11:20:32.478Z,5.50
2019-02-22T11:23:03.365Z,11.17
2019-02-22T11:25:34.504Z,4.90
2019-02-22T11:28:05.887Z,7.63
2019-02-22T11:30:37.397Z,6.80
2019-02-22T11:33:09.179Z,5.47
2019-02-22T11:35:40.686Z,5.70
2019-02-22T11:38:12.218Z,3.57
2019-02-22T11:40:43.437Z,6.17
2019-02-22T11:43:14.955Z,4.57
2019-02-22T11:45:46.430Z,5.23
2019-02-22T11:48:18.159Z,5.70
2019-02-22T11:50:49.866Z,3.37
2019-02-22T11:53:21.291Z,7.97
2019-02-22T11:55:53.005Z,13.27
2019-02-22T11:58:24.762Z,5.60
2019-02-22T12:00:56.668Z,9.93
2019-02-22T12:03:28.101Z,11.30
2019-02-22T12:05:59.259Z,5.67
2019-02-22T12:08:30.374Z,7.70
2019-02-22T12:11:01.588Z,4.77
2019-02-22T12:13:33.557Z,3.70
2019-02-22T12:16:04.559Z,6.93
2019-02-22T12:18:36.959Z,5.17
2019-02-22T12:21:13.658Z,3.97
2019-02-22T12:23:53.047Z,4.90
2019-02-22T12:26:24.983Z,4.40
2019-02-22T12:28:55.709Z,4.40
2019-02-22T12:31:27.461Z,4.47
2019-02-22T12:33:58.707Z,6.43
2019-02-22T12:36:30.630Z,9.50
2019-02-22T12:39:02.191Z,5.77
2019-02-22T12:41:35.626Z,9.33
2019-02-22T12:44:06.795Z,5.03
2019-02-22T12:46:39.548Z,3.37
2019-02-22T12:49:13.510Z,12.80
2019-02-22T12:51:49.288Z,4.03
2019-02-22T12:54:22.631Z,7.73
2019-02-22T12:56:57.526Z,4.53
2019-02-22T12:59:28.163Z,6.53
2019-02-22T13:02:01.472Z,8.07
2019-02-22T13:04:32.984Z,5.80
2019-02-22T13:07:04.176Z,7.60
2019-02-22T13:09:36.916Z,5.53
2019-02-22T13:12:14.020Z,2.33
2019-02-22T13:14:40.483Z,6.73
2019-02-22T13:17:11.568Z,6.30
2019-02-22T13:19:42.704Z,7.53
2019-02-22T13:22:13.155Z,6.23
2019-02-22T13:24:43.948Z,28.50
2019-02-22T13:27:14.365Z,4.73
2019-02-22T13:29:44.912Z,5.23
2019-02-22T13:32:15.354Z,7.17
2019-02-22T13:34:46.201Z,6.13
2019-02-22T13:37:16.712Z,11.07
2019-02-22T13:39:47.277Z,8.47
2019-02-22T13:42:17.531Z,7.50
2019-02-22T13:44:48.110Z,8.27
2019-02-22T13:47:18.380Z,8.83
2019-02-22T13:49:48.623Z,5.77
2019-02-22T13:52:18.909Z,7.53
2019-02-22T13:54:49.286Z,4.93
2019-02-22T13:57:20.407Z,4.63
2019-02-22T13:59:50.710Z,5.87
2019-02-22T14:02:20.969Z,6.67
2019-02-22T14:04:51.293Z,8.80
2019-02-22T14:07:21.545Z,5.40
2019-02-22T14:09:51.827Z,11.97
2019-02-22T14:12:22.132Z,6.87
2019-02-22T14:14:52.769Z,7.40
2019-02-22T14:17:23.692Z,10.17
2019-02-22T14:19:54.019Z,9.63
2019-02-22T14:22:24.253Z,8.00
2019-02-22T14:24:54.590Z,7.93
2019-02-22T14:27:24.912Z,7.83
2019-02-22T14:29:55.200Z,9.30
2019-02-22T14:32:25.468Z,7.57
2019-02-22T14:34:55.808Z,11.50
2019-02-22T14:37:28.066Z,10.00
2019-02-22T14:40:03.337Z,6.93
2019-02-22T14:42:42.972Z,7.13
2019-02-22T14:45:16.450Z,5.47
2019-02-22T14:47:47.563Z,6.30
2019-02-22T14:50:23.343Z,6.83
2019-02-22T14:52:55.957Z,8.77
2019-02-22T14:55:26.578Z,9.60
2019-02-22T14:57:58.526Z,6.23
2019-02-22T15:00:29.896Z,6.07
2019-02-22T15:03:01.773Z,9.23
2019-02-22T15:05:33.904Z,10.40
2019-02-22T15:08:05.025Z,4.37
2019-02-22T15:10:35.734Z,10.73
2019-02-22T15:13:07.979Z,5.40
2019-02-22T15:15:41.463Z,9.93
2019-02-22T15:18:15.094Z,7.20
2019-02-22T15:20:47.177Z,7.43
2019-02-22T15:23:20.469Z,11.73
2019-02-22T15:25:51.947Z,7.13
2019-02-22T15:28:23.147Z,6.60
2019-02-22T15:30:55.761Z,8.10
2019-02-22T15:33:27.708Z,6.73
2019-02-22T15:35:59.173Z,6.67
2019-02-22T15:38:31.011Z,12.77
2019-02-22T15:41:02.447Z,10.53
2019-02-22T15:43:33.490Z,14.20
2019-02-22T15:46:12.252Z,15.60
2019-02-22T15:48:37.009Z,15.20
2019-02-22T15:51:08.555Z,17.73
2019-02-22T15:53:39.778Z,10.47
2019-02-22T15:56:10.667Z,17.37
2019-02-22T15:58:42.467Z,28.23
2019-02-22T16:01:14.522Z,36.40
2019-02-22T16:03:47.571Z,60.97
2019-02-22T16:06:19.447Z,24.70
2019-02-22T16:08:51.384Z,26.37
2019-02-22T16:11:28.346Z,18.63
2019-02-22T16:14:07.089Z,13.53
2019-02-22T16:16:39.252Z,29.67
2019-02-22T16:19:33.407Z,30.63
2019-02-22T16:22:14.871Z,35.60
2019-02-22T16:24:46.286Z,38.13
2019-02-22T16:27:17.323Z,38.20
2019-02-22T16:29:52.922Z,35.73
2019-02-22T16:32:38.491Z,38.07
2019-02-22T16:35:19.761Z,25.87
2019-02-22T16:37:55.593Z,17.27
2019-02-22T16:40:30.879Z,21.80
2019-02-22T16:43:01.726Z,32.93
2019-02-22T16:45:32.642Z,43.93
2019-02-22T16:48:03.360Z,110.87
2019-02-22T16:50:34.815Z,63.90
2019-02-22T16:53:06.045Z,60.77
2019-02-22T16:55:36.801Z,49.00
2019-02-22T16:58:07.633Z,42.57
2019-02-22T17:00:38.362Z,40.17
2019-02-22T17:03:10.203Z,48.53
2019-02-22T17:05:40.961Z,87.03
2019-02-22T17:08:11.760Z,127.93
2019-02-22T17:10:42.681Z,103.30
2019-02-22T17:13:13.092Z,80.77
2019-02-22T17:15:43.601Z,124.40
2019-02-22T17:18:14.585Z,80.53
2019-02-22T17:20:45.409Z,59.27
2019-02-22T17:23:16.011Z,58.00
2019-02-22T17:25:47.401Z,47.67
2019-02-22T17:28:18.161Z,44.73
2019-02-22T17:30:48.520Z,47.23
2019-02-22T17:33:19.239Z,50.57
2019-02-22T17:35:49.738Z,41.73
2019-02-22T17:38:20.218Z,43.03
2019-02-22T17:40:53.633Z,44.10
2019-02-22T17:43:24.320Z,37.63
2019-02-22T17:45:54.813Z,43.73
2019-02-22T17:48:28.923Z,85.87
2019-02-22T17:51:01.031Z,44.13
2019-02-22T17:53:31.641Z,42.53
2019-02-22T17:56:02.044Z,37.57
2019-02-22T17:58:33.909Z,35.73
2019-02-22T18:01:04.920Z,28.97
2019-02-22T18:03:35.361Z,39.47
2019-02-22T18:06:05.929Z,31.00
2019-02-22T18:08:36.431Z,31.97
2019-02-22T18:11:06.954Z,31.00
2019-02-22T18:13:37.411Z,39.20
2019-02-22T18:16:08.261Z,45.63
2019-02-22T18:18:39.272Z,40.40
2019-02-22T18:21:09.887Z,78.17
2019-02-22T18:23:40.272Z,59.13
2019-02-22T18:26:10.862Z,57.77
2019-02-22T18:28:41.312Z,55.23
2019-02-22T18:31:11.711Z,48.47
2019-02-22T18:33:42.239Z,49.27
2019-02-22T18:36:12.611Z,44.30
2019-02-22T18:38:43.023Z,44.30
2019-02-22T18:41:13.922Z,51.97
2019-02-22T18:43:44.375Z,51.57
2019-02-22T18:46:14.839Z,49.90
2019-02-22T18:48:45.401Z,58.40
2019-02-22T18:51:15.888Z,56.23
2019-02-22T18:53:46.337Z,57.03
2019-02-22T18:56:16.785Z,56.67
2019-02-22T18:58:47.105Z,71.40
2019-02-22T19:01:17.489Z,99.33
2019-02-22T19:03:48.124Z,87.50
2019-02-22T19:06:18.800Z,83.73
2019-02-22T19:08:49.355Z,61.03
2019-02-22T19:11:19.929Z,75.57
2019-02-22T19:13:51.569Z,73.03
2019-02-22T19:16:22.000Z,78.47
2019-02-22T19:18:52.753Z,78.47
2019-02-22T19:21:23.461Z,64.73
2019-02-22T19:23:54.240Z,51.53
2019-02-22T19:26:24.689Z,86.33
2019-02-22T19:28:55.273Z,83.97
2019-02-22T19:31:25.977Z,85.97
2019-02-22T19:33:56.307Z,91.90
2019-02-22T19:36:26.681Z,82.97
2019-02-22T19:38:57.127Z,93.13
2019-02-22T19:41:27.649Z,82.17
2019-02-22T19:43:58.261Z,73.00
2019-02-22T19:46:28.896Z,83.40
2019-02-22T19:48:59.385Z,104.53
2019-02-22T19:51:29.850Z,108.83
2019-02-22T19:54:00.742Z,120.50
2019-02-22T19:56:34.251Z,107.77
2019-02-22T19:59:09.969Z,90.40
2019-02-22T20:01:40.464Z,64.07
2019-02-22T20:04:11.644Z,77.70
2019-02-22T20:06:42.303Z,80.43
2019-02-22T20:09:13.817Z,94.80
2019-02-22T20:11:48.159Z,140.17
2019-02-22T20:14:18.422Z,164.97
2019-02-22T20:16:48.794Z,151.00
2019-02-22T20:19:21.209Z,125.97
2019-02-22T20:21:58.193Z,130.50
2019-02-22T20:24:29.784Z,116.80
2019-02-22T20:27:02.055Z,108.20
2019-02-22T20:29:33.042Z,76.40
2019-02-22T20:32:03.956Z,65.07
2019-02-22T20:34:40.343Z,70.57
2019-02-22T20:37:12.884Z,82.37
2019-02-22T20:39:43.373Z,113.93
2019-02-22T20:42:13.811Z,112.00
2019-02-22T20:44:44.201Z,94.03
2019-02-22T20:47:14.528Z,82.63
2019-02-22T20:49:44.811Z,67.27
2019-02-22T20:52:15.219Z,63.23
2019-02-22T20:54:45.761Z,50.93
2019-02-22T20:57:18.613Z,46.40
2019-02-22T20:59:51.003Z,47.90
2019-02-22T21:02:22.007Z,53.67
2019-02-22T21:04:54.896Z,49.00
2019-02-22T21:07:25.872Z,55.70
2019-02-22T21:09:56.337Z,103.53
2019-02-22T21:12:29.567Z,138.57
2019-02-22T21:14:59.944Z,135.67
2019-02-22T21:17:30.905Z,101.60
2019-02-22T21:20:02.639Z,103.17
2019-02-22T21:22:33.144Z,115.40
2019-02-22T21:25:03.593Z,118.47
2019-02-22T21:27:34.032Z,117.30
2019-02-22T21:30:05.962Z,114.10
2019-02-22T21:32:36.312Z,111.40
2019-02-22T21:35:07.979Z,107.53
2019-02-22T21:37:39.276Z,89.57
2019-02-22T21:40:10.916Z,95.33
2019-02-22T21:42:41.178Z,94.77
2019-02-22T21:45:14.180Z,94.77
2019-02-22T21:47:54.383Z,93.43
2019-02-22T21:50:17.854Z,104.33
2019-02-22T21:52:48.148Z,93.10
2019-02-22T21:55:18.435Z,117.67
2019-02-22T21:57:48.906Z,119.10
2019-02-22T22:00:21.741Z,125.70
2019-02-22T22:02:52.106Z,124.43
2019-02-22T22:05:22.491Z,121.13
2019-02-22T22:07:52.815Z,125.53
2019-02-22T22:10:23.124Z,135.67
2019-02-22T22:12:53.550Z,150.47
2019-02-22T22:15:23.856Z,142.00
2019-02-22T22:17:54.234Z,150.60
2019-02-22T22:20:24.520Z,136.67
2019-02-22T22:22:55.884Z,109.20
2019-02-22T22:25:26.170Z,105.43
2019-02-22T22:27:56.529Z,106.17
2019-02-22T22:30:26.986Z,97.13
2019-02-22T22:32:57.344Z,96.87
2019-02-22T22:35:27.789Z,94.90
2019-02-22T22:37:58.562Z,90.60
2019-02-22T22:40:28.916Z,94.17
2019-02-22T22:42:59.198Z,89.37
2019-02-22T22:45:30.142Z,94.57
2019-02-22T22:48:01.033Z,95.20
2019-02-22T22:50:31.318Z,82.50
2019-02-22T22:53:01.643Z,95.00
2019-02-22T22:55:31.936Z,103.50
2019-02-22T22:58:02.240Z,95.70
2019-02-22T23:00:35.811Z,98.80
2019-02-22T23:03:07.827Z,90.67
2019-02-22T23:05:38.660Z,93.07
2019-02-22T23:08:09.602Z,103.97
2019-02-22T23:10:40.572Z,106.60
2019-02-22T23:13:12.012Z,100.23
2019-02-22T23:15:42.853Z,134.83
2019-02-22T23:18:14.502Z,134.10
2019-02-22T23:20:45.625Z,100.77
2019-02-22T23:23:16.916Z,76.53
2019-02-22T23:25:48.128Z,96.97
2019-02-22T23:28:19.651Z,85.40
2019-02-22T23:30:50.620Z,84.00
2019-02-22T23:33:21.527Z,83.93
2019-02-22T23:35:52.404Z,87.13
2019-02-22T23:38:23.767Z,86.63
2019-02-22T23:40:54.967Z,84.47
2019-02-22T23:43:26.228Z,92.20
2019-02-22T23:45:56.993Z,93.90
2019-02-22T23:48:27.447Z,93.13
2019-02-22T23:50:58.528Z,86.30
2019-02-22T23:53:29.553Z,89.43
2019-02-22T23:56:00.639Z,86.00
2019-02-22T23:58:32.368Z,96.63
